sensor_id;sensor_type;location;lat;lon;timestamp;P1;durP1;ratioP1;P2;durP2;ratioP2
52304;SDS011;38248;52.722;6.734;2022-08-27T00:01:22;3.80;;;1.27;;
52304;SDS011;38248;52.722;6.734;2022-08-27T00:03:48;3.38;;;1.38;;
52304;SDS011;38248;52.722;6.734;2022-08-27T00:06:14;4.63;;;1.98;;
52304;SDS011;38248;52.722;6.734;2022-08-27T00:08:42;4.47;;;1.50;;
52304;SDS011;38248;52.722;6.734;2022-08-27T00:11:09;7.50;;;1.95;;
52304;SDS011;38248;52.722;6.734;2022-08-27T00:13:36;4.25;;;1.40;;
52304;SDS011;38248;52.722;6.734;2022-08-27T00:16:03;7.25;;;2.03;;
52304;SDS011;38248;52.722;6.734;2022-08-27T00:18:31;4.68;;;1.77;;
52304;SDS011;38248;52.722;6.734;2022-08-27T00:20:58;6.25;;;2.40;;
52304;SDS011;38248;52.722;6.734;2022-08-27T00:23:24;7.80;;;1.63;;
52304;SDS011;38248;52.722;6.734;2022-08-27T00:25:50;3.20;;;1.63;;
52304;SDS011;38248;52.722;6.734;2022-08-27T00:28:15;4.45;;;1.60;;
52304;SDS011;38248;52.722;6.734;2022-08-27T00:30:41;5.65;;;2.13;;
52304;SDS011;38248;52.722;6.734;2022-08-27T00:33:06;6.88;;;1.85;;
52304;SDS011;38248;52.722;6.734;2022-08-27T00:35:32;5.93;;;1.58;;
52304;SDS011;38248;52.722;6.734;2022-08-27T00:37:58;6.07;;;1.63;;
52304;SDS011;38248;52.722;6.734;2022-08-27T00:40:24;4.70;;;1.70;;
52304;SDS011;38248;52.722;6.734;2022-08-27T00:42:51;4.93;;;1.60;;
52304;SDS011;38248;52.722;6.734;2022-08-27T00:45:19;4.28;;;2.13;;
52304;SDS011;38248;52.722;6.734;2022-08-27T00:47:51;5.43;;;2.00;;
52304;SDS011;38248;52.722;6.734;2022-08-27T00:50:25;2.92;;;1.42;;
52304;SDS011;38248;52.722;6.734;2022-08-27T00:52:58;4.10;;;1.92;;
52304;SDS011;38248;52.722;6.734;2022-08-27T00:55:29;9.00;;;2.10;;
52304;SDS011;38248;52.722;6.734;2022-08-27T01:03:10;4.38;;;1.23;;
52304;SDS011;38248;52.722;6.734;2022-08-27T01:05:36;5.88;;;1.73;;
52304;SDS011;38248;52.722;6.734;2022-08-27T01:08:06;3.17;;;1.70;;
52304;SDS011;38248;52.722;6.734;2022-08-27T01:10:45;6.63;;;1.73;;
52304;SDS011;38248;52.722;6.734;2022-08-27T01:13:16;4.40;;;2.22;;
52304;SDS011;38248;52.722;6.734;2022-08-27T01:15:45;4.60;;;1.75;;
52304;SDS011;38248;52.722;6.734;2022-08-27T01:18:12;4.88;;;1.60;;
52304;SDS011;38248;52.722;6.734;2022-08-27T01:20:55;3.55;;;1.95;;
52304;SDS011;38248;52.722;6.734;2022-08-27T01:26:12;5.95;;;2.20;;
52304;SDS011;38248;52.722;6.734;2022-08-27T01:28:40;4.45;;;1.55;;
52304;SDS011;38248;52.722;6.734;2022-08-27T01:31:06;4.97;;;2.22;;
52304;SDS011;38248;52.722;6.734;2022-08-27T01:33:33;4.47;;;1.85;;
52304;SDS011;38248;52.722;6.734;2022-08-27T01:35:58;5.45;;;1.83;;
52304;SDS011;38248;52.722;6.734;2022-08-27T01:38:24;5.20;;;1.60;;
52304;SDS011;38248;52.722;6.734;2022-08-27T01:40:51;4.35;;;1.83;;
52304;SDS011;38248;52.722;6.734;2022-08-27T01:43:17;3.55;;;2.28;;
52304;SDS011;38248;52.722;6.734;2022-08-27T01:45:44;5.50;;;1.90;;
52304;SDS011;38248;52.722;6.734;2022-08-27T01:48:15;5.18;;;2.25;;
52304;SDS011;38248;52.722;6.734;2022-08-27T01:50:43;6.28;;;2.05;;
52304;SDS011;38248;52.722;6.734;2022-08-27T01:53:11;6.85;;;2.35;;
52304;SDS011;38248;52.722;6.734;2022-08-27T01:55:42;3.63;;;2.17;;
52304;SDS011;38248;52.722;6.734;2022-08-27T01:58:09;5.65;;;2.50;;
52304;SDS011;38248;52.722;6.734;2022-08-27T02:00:37;6.82;;;2.80;;
52304;SDS011;38248;52.722;6.734;2022-08-27T02:03:06;5.78;;;2.17;;
52304;SDS011;38248;52.722;6.734;2022-08-27T02:05:32;3.15;;;1.88;;
52304;SDS011;38248;52.722;6.734;2022-08-27T02:07:58;5.55;;;1.98;;
52304;SDS011;38248;52.722;6.734;2022-08-27T02:10:26;5.40;;;1.63;;
52304;SDS011;38248;52.722;6.734;2022-08-27T02:12:53;5.50;;;1.92;;
52304;SDS011;38248;52.722;6.734;2022-08-27T02:15:19;4.18;;;1.70;;
52304;SDS011;38248;52.722;6.734;2022-08-27T02:17:45;7.03;;;2.60;;
52304;SDS011;38248;52.722;6.734;2022-08-27T02:20:12;3.95;;;1.77;;
52304;SDS011;38248;52.722;6.734;2022-08-27T02:22:39;3.30;;;1.60;;
52304;SDS011;38248;52.722;6.734;2022-08-27T02:25:06;5.45;;;2.25;;
52304;SDS011;38248;52.722;6.734;2022-08-27T02:27:33;3.10;;;1.70;;
52304;SDS011;38248;52.722;6.734;2022-08-27T02:29:59;5.30;;;1.70;;
52304;SDS011;38248;52.722;6.734;2022-08-27T02:32:25;3.83;;;1.45;;
52304;SDS011;38248;52.722;6.734;2022-08-27T02:34:52;7.20;;;2.05;;
52304;SDS011;38248;52.722;6.734;2022-08-27T02:37:18;5.60;;;1.67;;
52304;SDS011;38248;52.722;6.734;2022-08-27T02:39:43;6.05;;;1.65;;
52304;SDS011;38248;52.722;6.734;2022-08-27T02:42:09;3.80;;;1.40;;
52304;SDS011;38248;52.722;6.734;2022-08-27T02:44:35;5.40;;;1.50;;
52304;SDS011;38248;52.722;6.734;2022-08-27T02:47:01;6.38;;;2.03;;
52304;SDS011;38248;52.722;6.734;2022-08-27T02:49:28;3.60;;;1.40;;
52304;SDS011;38248;52.722;6.734;2022-08-27T02:51:54;5.82;;;1.45;;
52304;SDS011;38248;52.722;6.734;2022-08-27T02:54:22;5.22;;;1.95;;
52304;SDS011;38248;52.722;6.734;2022-08-27T02:56:49;4.03;;;1.92;;
52304;SDS011;38248;52.722;6.734;2022-08-27T02:59:19;1.75;;;1.10;;
52304;SDS011;38248;52.722;6.734;2022-08-27T03:01:45;8.25;;;2.28;;
52304;SDS011;38248;52.722;6.734;2022-08-27T03:04:11;4.65;;;2.28;;
52304;SDS011;38248;52.722;6.734;2022-08-27T03:06:38;5.10;;;1.40;;
52304;SDS011;38248;52.722;6.734;2022-08-27T03:09:04;3.08;;;1.40;;
52304;SDS011;38248;52.722;6.734;2022-08-27T03:11:30;4.22;;;1.55;;
52304;SDS011;38248;52.722;6.734;2022-08-27T03:13:56;4.78;;;1.50;;
52304;SDS011;38248;52.722;6.734;2022-08-27T03:16:25;5.97;;;1.73;;
52304;SDS011;38248;52.722;6.734;2022-08-27T03:18:51;4.00;;;1.55;;
52304;SDS011;38248;52.722;6.734;2022-08-27T03:21:21;4.53;;;1.85;;
52304;SDS011;38248;52.722;6.734;2022-08-27T03:23:51;4.50;;;1.70;;
52304;SDS011;38248;52.722;6.734;2022-08-27T03:26:17;4.22;;;1.17;;
52304;SDS011;38248;52.722;6.734;2022-08-27T03:28:43;7.05;;;2.28;;
52304;SDS011;38248;52.722;6.734;2022-08-27T03:31:16;6.13;;;1.67;;
52304;SDS011;38248;52.722;6.734;2022-08-27T03:33:50;5.25;;;1.63;;
52304;SDS011;38248;52.722;6.734;2022-08-27T03:36:18;4.43;;;1.60;;
52304;SDS011;38248;52.722;6.734;2022-08-27T03:38:43;6.57;;;1.65;;
52304;SDS011;38248;52.722;6.734;2022-08-27T03:41:09;9.32;;;2.05;;
52304;SDS011;38248;52.722;6.734;2022-08-27T03:43:35;4.88;;;1.60;;
52304;SDS011;38248;52.722;6.734;2022-08-27T03:46:00;4.28;;;1.40;;
52304;SDS011;38248;52.722;6.734;2022-08-27T03:48:26;4.20;;;1.75;;
52304;SDS011;38248;52.722;6.734;2022-08-27T03:50:53;5.63;;;2.08;;
52304;SDS011;38248;52.722;6.734;2022-08-27T03:53:19;2.85;;;1.58;;
52304;SDS011;38248;52.722;6.734;2022-08-27T03:55:45;5.63;;;1.83;;
52304;SDS011;38248;52.722;6.734;2022-08-27T03:58:11;7.88;;;2.65;;
52304;SDS011;38248;52.722;6.734;2022-08-27T04:00:38;4.20;;;2.00;;
52304;SDS011;38248;52.722;6.734;2022-08-27T04:03:04;6.63;;;2.38;;
52304;SDS011;38248;52.722;6.734;2022-08-27T04:05:30;4.63;;;2.08;;
52304;SDS011;38248;52.722;6.734;2022-08-27T04:07:56;8.23;;;2.10;;
52304;SDS011;38248;52.722;6.734;2022-08-27T04:10:22;4.20;;;1.73;;
52304;SDS011;38248;52.722;6.734;2022-08-27T04:12:48;3.80;;;1.65;;
52304;SDS011;38248;52.722;6.734;2022-08-27T04:15:13;4.03;;;1.50;;
52304;SDS011;38248;52.722;6.734;2022-08-27T04:17:39;5.68;;;2.08;;
52304;SDS011;38248;52.722;6.734;2022-08-27T04:20:06;4.50;;;1.92;;
52304;SDS011;38248;52.722;6.734;2022-08-27T04:22:33;5.93;;;1.85;;
52304;SDS011;38248;52.722;6.734;2022-08-27T04:24:59;3.20;;;1.75;;
52304;SDS011;38248;52.722;6.734;2022-08-27T04:27:25;7.72;;;2.00;;
52304;SDS011;38248;52.722;6.734;2022-08-27T04:29:55;7.05;;;2.10;;
52304;SDS011;38248;52.722;6.734;2022-08-27T04:32:22;7.53;;;1.70;;
52304;SDS011;38248;52.722;6.734;2022-08-27T04:34:52;5.50;;;2.05;;
52304;SDS011;38248;52.722;6.734;2022-08-27T04:37:22;5.57;;;2.40;;
52304;SDS011;38248;52.722;6.734;2022-08-27T04:39:48;6.25;;;2.55;;
52304;SDS011;38248;52.722;6.734;2022-08-27T04:42:16;7.03;;;2.45;;
52304;SDS011;38248;52.722;6.734;2022-08-27T04:44:43;6.75;;;2.30;;
52304;SDS011;38248;52.722;6.734;2022-08-27T04:47:10;5.78;;;2.90;;
52304;SDS011;38248;52.722;6.734;2022-08-27T04:49:37;4.65;;;2.40;;
52304;SDS011;38248;52.722;6.734;2022-08-27T04:52:03;5.68;;;2.55;;
52304;SDS011;38248;52.722;6.734;2022-08-27T04:54:29;4.07;;;2.85;;
52304;SDS011;38248;52.722;6.734;2022-08-27T04:56:54;6.15;;;2.60;;
52304;SDS011;38248;52.722;6.734;2022-08-27T04:59:20;6.07;;;2.67;;
52304;SDS011;38248;52.722;6.734;2022-08-27T05:01:46;4.90;;;2.50;;
52304;SDS011;38248;52.722;6.734;2022-08-27T05:04:13;6.68;;;2.35;;
52304;SDS011;38248;52.722;6.734;2022-08-27T05:06:43;6.80;;;2.70;;
52304;SDS011;38248;52.722;6.734;2022-08-27T05:09:10;6.43;;;2.60;;
52304;SDS011;38248;52.722;6.734;2022-08-27T05:11:37;6.25;;;2.30;;
52304;SDS011;38248;52.722;6.734;2022-08-27T05:14:04;4.30;;;2.58;;
52304;SDS011;38248;52.722;6.734;2022-08-27T05:16:31;4.32;;;2.20;;
52304;SDS011;38248;52.722;6.734;2022-08-27T05:19:00;4.80;;;2.22;;
52304;SDS011;38248;52.722;6.734;2022-08-27T05:21:28;3.90;;;2.20;;
52304;SDS011;38248;52.722;6.734;2022-08-27T05:23:57;9.63;;;3.05;;
52304;SDS011;38248;52.722;6.734;2022-08-27T05:26:24;5.18;;;2.20;;
52304;SDS011;38248;52.722;6.734;2022-08-27T05:28:51;6.68;;;2.28;;
52304;SDS011;38248;52.722;6.734;2022-08-27T05:31:17;9.63;;;2.80;;
52304;SDS011;38248;52.722;6.734;2022-08-27T05:33:44;4.85;;;2.30;;
52304;SDS011;38248;52.722;6.734;2022-08-27T05:36:16;3.58;;;1.90;;
52304;SDS011;38248;52.722;6.734;2022-08-27T05:38:45;7.15;;;2.25;;
52304;SDS011;38248;52.722;6.734;2022-08-27T05:41:14;5.20;;;2.10;;
52304;SDS011;38248;52.722;6.734;2022-08-27T05:43:41;5.60;;;2.40;;
52304;SDS011;38248;52.722;6.734;2022-08-27T05:46:09;6.88;;;2.10;;
52304;SDS011;38248;52.722;6.734;2022-08-27T05:48:36;5.30;;;2.17;;
52304;SDS011;38248;52.722;6.734;2022-08-27T05:51:23;5.10;;;2.08;;
52304;SDS011;38248;52.722;6.734;2022-08-27T05:53:56;4.63;;;2.00;;
52304;SDS011;38248;52.722;6.734;2022-08-27T05:56:24;5.50;;;1.67;;
52304;SDS011;38248;52.722;6.734;2022-08-27T05:58:51;8.32;;;2.38;;
52304;SDS011;38248;52.722;6.734;2022-08-27T06:01:42;6.45;;;1.60;;
52304;SDS011;38248;52.722;6.734;2022-08-27T06:04:11;5.07;;;2.05;;
52304;SDS011;38248;52.722;6.734;2022-08-27T06:06:41;5.50;;;1.90;;
52304;SDS011;38248;52.722;6.734;2022-08-27T06:09:08;6.53;;;1.63;;
52304;SDS011;38248;52.722;6.734;2022-08-27T06:11:36;3.17;;;1.50;;
52304;SDS011;38248;52.722;6.734;2022-08-27T06:14:03;2.75;;;1.08;;
52304;SDS011;38248;52.722;6.734;2022-08-27T06:16:29;2.35;;;1.50;;
52304;SDS011;38248;52.722;6.734;2022-08-27T06:18:55;2.55;;;1.10;;
52304;SDS011;38248;52.722;6.734;2022-08-27T06:21:21;7.68;;;1.50;;
52304;SDS011;38248;52.722;6.734;2022-08-27T06:23:47;6.10;;;1.75;;
52304;SDS011;38248;52.722;6.734;2022-08-27T06:26:17;4.53;;;1.25;;
52304;SDS011;38248;52.722;6.734;2022-08-27T06:28:44;4.63;;;1.10;;
52304;SDS011;38248;52.722;6.734;2022-08-27T06:31:12;4.50;;;1.10;;
52304;SDS011;38248;52.722;6.734;2022-08-27T06:33:40;6.70;;;1.67;;
52304;SDS011;38248;52.722;6.734;2022-08-27T06:36:08;3.75;;;1.30;;
52304;SDS011;38248;52.722;6.734;2022-08-27T06:38:37;4.75;;;1.48;;
52304;SDS011;38248;52.722;6.734;2022-08-27T06:41:03;2.65;;;0.65;;
52304;SDS011;38248;52.722;6.734;2022-08-27T06:43:30;5.35;;;1.38;;
52304;SDS011;38248;52.722;6.734;2022-08-27T06:46:00;5.80;;;1.58;;
52304;SDS011;38248;52.722;6.734;2022-08-27T06:48:27;3.10;;;1.20;;
52304;SDS011;38248;52.722;6.734;2022-08-27T06:50:52;5.25;;;1.60;;
52304;SDS011;38248;52.722;6.734;2022-08-27T06:53:20;4.32;;;1.48;;
52304;SDS011;38248;52.722;6.734;2022-08-27T06:55:46;2.20;;;1.00;;
52304;SDS011;38248;52.722;6.734;2022-08-27T06:58:13;3.83;;;1.10;;
52304;SDS011;38248;52.722;6.734;2022-08-27T07:00:42;6.82;;;1.27;;
52304;SDS011;38248;52.722;6.734;2022-08-27T07:03:08;2.67;;;1.10;;
52304;SDS011;38248;52.722;6.734;2022-08-27T07:05:36;4.68;;;1.10;;
52304;SDS011;38248;52.722;6.734;2022-08-27T07:08:04;3.30;;;1.45;;
52304;SDS011;38248;52.722;6.734;2022-08-27T07:10:31;5.32;;;1.38;;
52304;SDS011;38248;52.722;6.734;2022-08-27T07:12:57;2.60;;;1.17;;
52304;SDS011;38248;52.722;6.734;2022-08-27T07:15:23;5.35;;;1.30;;
52304;SDS011;38248;52.722;6.734;2022-08-27T07:17:49;8.23;;;1.42;;
52304;SDS011;38248;52.722;6.734;2022-08-27T07:20:16;3.35;;;1.10;;
52304;SDS011;38248;52.722;6.734;2022-08-27T07:22:43;4.35;;;1.10;;
52304;SDS011;38248;52.722;6.734;2022-08-27T07:25:11;4.70;;;1.25;;
52304;SDS011;38248;52.722;6.734;2022-08-27T07:27:39;4.30;;;1.00;;
52304;SDS011;38248;52.722;6.734;2022-08-27T07:30:06;3.42;;;1.58;;
52304;SDS011;38248;52.722;6.734;2022-08-27T07:32:36;3.60;;;1.52;;
52304;SDS011;38248;52.722;6.734;2022-08-27T07:35:02;3.33;;;0.80;;
52304;SDS011;38248;52.722;6.734;2022-08-27T07:37:28;7.78;;;1.52;;
52304;SDS011;38248;52.722;6.734;2022-08-27T07:39:54;8.57;;;2.08;;
52304;SDS011;38248;52.722;6.734;2022-08-27T07:42:19;4.63;;;1.00;;
52304;SDS011;38248;52.722;6.734;2022-08-27T07:45:03;6.25;;;0.90;;
52304;SDS011;38248;52.722;6.734;2022-08-27T07:47:30;4.78;;;0.95;;
52304;SDS011;38248;52.722;6.734;2022-08-27T07:49:56;3.72;;;0.93;;
52304;SDS011;38248;52.722;6.734;2022-08-27T07:52:25;4.50;;;1.70;;
52304;SDS011;38248;52.722;6.734;2022-08-27T07:54:51;6.80;;;1.85;;
52304;SDS011;38248;52.722;6.734;2022-08-27T07:57:18;6.45;;;0.95;;
52304;SDS011;38248;52.722;6.734;2022-08-27T07:59:43;3.97;;;0.80;;
52304;SDS011;38248;52.722;6.734;2022-08-27T08:02:09;5.10;;;1.30;;
52304;SDS011;38248;52.722;6.734;2022-08-27T08:04:36;5.75;;;1.23;;
52304;SDS011;38248;52.722;6.734;2022-08-27T08:07:02;5.85;;;0.93;;
52304;SDS011;38248;52.722;6.734;2022-08-27T08:09:27;7.13;;;1.10;;
52304;SDS011;38248;52.722;6.734;2022-08-27T08:11:54;3.72;;;0.82;;
52304;SDS011;38248;52.722;6.734;2022-08-27T08:14:20;4.82;;;1.50;;
52304;SDS011;38248;52.722;6.734;2022-08-27T08:16:46;3.90;;;1.20;;
52304;SDS011;38248;52.722;6.734;2022-08-27T08:19:11;4.72;;;1.20;;
52304;SDS011;38248;52.722;6.734;2022-08-27T08:21:37;4.07;;;0.80;;
52304;SDS011;38248;52.722;6.734;2022-08-27T08:24:03;4.78;;;1.13;;
52304;SDS011;38248;52.722;6.734;2022-08-27T08:26:29;5.18;;;1.08;;
52304;SDS011;38248;52.722;6.734;2022-08-27T08:28:55;6.90;;;1.20;;
52304;SDS011;38248;52.722;6.734;2022-08-27T08:31:21;6.10;;;0.80;;
52304;SDS011;38248;52.722;6.734;2022-08-27T08:33:48;3.28;;;0.90;;
52304;SDS011;38248;52.722;6.734;2022-08-27T08:36:15;4.22;;;1.38;;
52304;SDS011;38248;52.722;6.734;2022-08-27T08:38:42;8.60;;;1.38;;
52304;SDS011;38248;52.722;6.734;2022-08-27T08:47:14;3.47;;;1.02;;
52304;SDS011;38248;52.722;6.734;2022-08-27T08:52:37;3.85;;;0.80;;
52304;SDS011;38248;52.722;6.734;2022-08-27T08:55:12;5.38;;;1.05;;
52304;SDS011;38248;52.722;6.734;2022-08-27T09:00:53;4.82;;;0.90;;
52304;SDS011;38248;52.722;6.734;2022-08-27T09:03:23;2.78;;;0.80;;
52304;SDS011;38248;52.722;6.734;2022-08-27T09:06:10;3.92;;;0.70;;
52304;SDS011;38248;52.722;6.734;2022-08-27T09:08:42;6.65;;;0.85;;
52304;SDS011;38248;52.722;6.734;2022-08-27T09:11:30;3.35;;;1.02;;
52304;SDS011;38248;52.722;6.734;2022-08-27T09:14:09;5.47;;;1.20;;
52304;SDS011;38248;52.722;6.734;2022-08-27T09:16:48;5.78;;;0.90;;
52304;SDS011;38248;52.722;6.734;2022-08-27T09:19:14;4.55;;;0.90;;
52304;SDS011;38248;52.722;6.734;2022-08-27T09:26:58;5.35;;;1.33;;
52304;SDS011;38248;52.722;6.734;2022-08-27T09:29:25;6.38;;;1.00;;
52304;SDS011;38248;52.722;6.734;2022-08-27T09:31:54;4.82;;;1.00;;
52304;SDS011;38248;52.722;6.734;2022-08-27T09:34:22;4.32;;;0.85;;
52304;SDS011;38248;52.722;6.734;2022-08-27T09:42:08;4.65;;;1.10;;
52304;SDS011;38248;52.722;6.734;2022-08-27T09:45:07;7.57;;;0.90;;
52304;SDS011;38248;52.722;6.734;2022-08-27T09:47:47;5.15;;;1.77;;
52304;SDS011;38248;52.722;6.734;2022-08-27T09:50:16;6.20;;;1.50;;
52304;SDS011;38248;52.722;6.734;2022-08-27T09:52:46;5.30;;;1.00;;
52304;SDS011;38248;52.722;6.734;2022-08-27T09:55:29;4.55;;;1.08;;
52304;SDS011;38248;52.722;6.734;2022-08-27T09:58:13;3.35;;;0.90;;
52304;SDS011;38248;52.722;6.734;2022-08-27T10:00:46;5.03;;;1.13;;
52304;SDS011;38248;52.722;6.734;2022-08-27T10:03:22;6.03;;;1.45;;
52304;SDS011;38248;52.722;6.734;2022-08-27T10:05:48;6.40;;;1.08;;
52304;SDS011;38248;52.722;6.734;2022-08-27T10:10:54;3.33;;;0.80;;
52304;SDS011;38248;52.722;6.734;2022-08-27T10:13:38;3.72;;;1.10;;
52304;SDS011;38248;52.722;6.734;2022-08-27T10:24:35;8.80;;;1.17;;
52304;SDS011;38248;52.722;6.734;2022-08-27T10:30:31;4.28;;;0.90;;
52304;SDS011;38248;52.722;6.734;2022-08-27T10:38:17;3.45;;;0.77;;
52304;SDS011;38248;52.722;6.734;2022-08-27T10:40:58;5.60;;;1.00;;
52304;SDS011;38248;52.722;6.734;2022-08-27T10:43:40;2.60;;;0.85;;
52304;SDS011;38248;52.722;6.734;2022-08-27T10:52:12;5.20;;;1.80;;
52304;SDS011;38248;52.722;6.734;2022-08-27T10:54:42;3.97;;;0.70;;
52304;SDS011;38248;52.722;6.734;2022-08-27T10:57:37;5.57;;;0.85;;
52304;SDS011;38248;52.722;6.734;2022-08-27T11:00:25;4.95;;;1.08;;
52304;SDS011;38248;52.722;6.734;2022-08-27T11:03:07;4.55;;;1.30;;
52304;SDS011;38248;52.722;6.734;2022-08-27T11:06:10;5.43;;;0.90;;
52304;SDS011;38248;52.722;6.734;2022-08-27T11:08:43;4.38;;;0.90;;
52304;SDS011;38248;52.722;6.734;2022-08-27T11:11:27;8.55;;;1.00;;
52304;SDS011;38248;52.722;6.734;2022-08-27T11:14:03;5.50;;;2.03;;
52304;SDS011;38248;52.722;6.734;2022-08-27T11:16:36;6.00;;;1.05;;
52304;SDS011;38248;52.722;6.734;2022-08-27T11:19:18;3.72;;;1.20;;
52304;SDS011;38248;52.722;6.734;2022-08-27T11:22:01;4.05;;;0.85;;
52304;SDS011;38248;52.722;6.734;2022-08-27T11:27:11;4.20;;;0.90;;
52304;SDS011;38248;52.722;6.734;2022-08-27T11:34:55;4.90;;;1.33;;
52304;SDS011;38248;52.722;6.734;2022-08-27T11:37:29;3.92;;;1.02;;
52304;SDS011;38248;52.722;6.734;2022-08-27T11:43:01;4.82;;;1.20;;
52304;SDS011;38248;52.722;6.734;2022-08-27T11:45:31;3.28;;;0.80;;
52304;SDS011;38248;52.722;6.734;2022-08-27T11:48:14;3.22;;;0.68;;
52304;SDS011;38248;52.722;6.734;2022-08-27T11:50:40;7.00;;;1.05;;
52304;SDS011;38248;52.722;6.734;2022-08-27T11:53:23;5.57;;;0.80;;
52304;SDS011;38248;52.722;6.734;2022-08-27T11:56:12;3.90;;;0.98;;
52304;SDS011;38248;52.722;6.734;2022-08-27T12:05:06;4.88;;;0.90;;
52304;SDS011;38248;52.722;6.734;2022-08-27T12:08:09;3.72;;;1.20;;
52304;SDS011;38248;52.722;6.734;2022-08-27T12:13:19;6.93;;;1.10;;
52304;SDS011;38248;52.722;6.734;2022-08-27T12:15:56;6.93;;;1.67;;
52304;SDS011;38248;52.722;6.734;2022-08-27T12:18:32;3.65;;;1.02;;
52304;SDS011;38248;52.722;6.734;2022-08-27T12:21:10;5.80;;;0.70;;
52304;SDS011;38248;52.722;6.734;2022-08-27T12:26:39;3.35;;;0.80;;
52304;SDS011;38248;52.722;6.734;2022-08-27T12:29:23;4.78;;;0.80;;
52304;SDS011;38248;52.722;6.734;2022-08-27T12:31:54;6.32;;;1.48;;
52304;SDS011;38248;52.722;6.734;2022-08-27T12:34:40;7.90;;;1.95;;
52304;SDS011;38248;52.722;6.734;2022-08-27T12:37:09;3.33;;;0.73;;
52304;SDS011;38248;52.722;6.734;2022-08-27T12:39:36;6.40;;;0.95;;
52304;SDS011;38248;52.722;6.734;2022-08-27T12:42:10;4.65;;;1.30;;
52304;SDS011;38248;52.722;6.734;2022-08-27T12:44:43;6.53;;;0.77;;
52304;SDS011;38248;52.722;6.734;2022-08-27T12:47:09;4.57;;;0.60;;
52304;SDS011;38248;52.722;6.734;2022-08-27T12:52:13;3.40;;;0.60;;
52304;SDS011;38248;52.722;6.734;2022-08-27T12:54:54;4.07;;;0.70;;
52304;SDS011;38248;52.722;6.734;2022-08-27T13:00:14;4.50;;;1.15;;
52304;SDS011;38248;52.722;6.734;2022-08-27T13:03:08;6.30;;;1.08;;
52304;SDS011;38248;52.722;6.734;2022-08-27T13:05:49;5.20;;;0.95;;
52304;SDS011;38248;52.722;6.734;2022-08-27T13:08:19;6.20;;;0.80;;
52304;SDS011;38248;52.722;6.734;2022-08-27T13:10:46;5.18;;;1.10;;
52304;SDS011;38248;52.722;6.734;2022-08-27T13:13:16;7.75;;;0.90;;
52304;SDS011;38248;52.722;6.734;2022-08-27T13:15:54;5.27;;;1.00;;
52304;SDS011;38248;52.722;6.734;2022-08-27T13:18:22;3.75;;;0.88;;
52304;SDS011;38248;52.722;6.734;2022-08-27T13:20:50;5.82;;;0.90;;
52304;SDS011;38248;52.722;6.734;2022-08-27T13:23:25;6.47;;;1.35;;
52304;SDS011;38248;52.722;6.734;2022-08-27T13:26:13;6.85;;;1.20;;
52304;SDS011;38248;52.722;6.734;2022-08-27T13:28:38;4.43;;;1.00;;
52304;SDS011;38248;52.722;6.734;2022-08-27T13:31:06;5.38;;;0.90;;
52304;SDS011;38248;52.722;6.734;2022-08-27T13:33:34;3.70;;;0.80;;
52304;SDS011;38248;52.722;6.734;2022-08-27T13:36:01;3.45;;;1.13;;
52304;SDS011;38248;52.722;6.734;2022-08-27T13:38:31;6.03;;;0.65;;
52304;SDS011;38248;52.722;6.734;2022-08-27T13:41:06;5.13;;;0.88;;
52304;SDS011;38248;52.722;6.734;2022-08-27T13:43:44;3.05;;;0.60;;
52304;SDS011;38248;52.722;6.734;2022-08-27T13:46:13;5.82;;;1.00;;
52304;SDS011;38248;52.722;6.734;2022-08-27T13:48:46;5.95;;;0.77;;
52304;SDS011;38248;52.722;6.734;2022-08-27T13:51:15;4.00;;;1.20;;
52304;SDS011;38248;52.722;6.734;2022-08-27T13:53:53;4.38;;;0.82;;
52304;SDS011;38248;52.722;6.734;2022-08-27T14:04:38;2.75;;;0.57;;
52304;SDS011;38248;52.722;6.734;2022-08-27T14:07:32;4.78;;;0.50;;
52304;SDS011;38248;52.722;6.734;2022-08-27T14:10:07;4.22;;;0.68;;
52304;SDS011;38248;52.722;6.734;2022-08-27T14:12:57;1.90;;;0.50;;
52304;SDS011;38248;52.722;6.734;2022-08-27T14:15:33;5.65;;;0.70;;
52304;SDS011;38248;52.722;6.734;2022-08-27T14:17:59;4.53;;;1.05;;
52304;SDS011;38248;52.722;6.734;2022-08-27T14:20:26;3.78;;;0.85;;
52304;SDS011;38248;52.722;6.734;2022-08-27T14:22:53;5.15;;;0.60;;
52304;SDS011;38248;52.722;6.734;2022-08-27T14:25:20;3.17;;;0.70;;
52304;SDS011;38248;52.722;6.734;2022-08-27T14:27:46;4.78;;;0.60;;
52304;SDS011;38248;52.722;6.734;2022-08-27T14:30:14;3.90;;;0.70;;
52304;SDS011;38248;52.722;6.734;2022-08-27T14:32:42;6.20;;;0.93;;
52304;SDS011;38248;52.722;6.734;2022-08-27T14:35:08;5.47;;;1.23;;
52304;SDS011;38248;52.722;6.734;2022-08-27T14:37:36;4.75;;;0.82;;
52304;SDS011;38248;52.722;6.734;2022-08-27T14:40:03;3.17;;;0.60;;
52304;SDS011;38248;52.722;6.734;2022-08-27T14:42:29;3.78;;;0.43;;
52304;SDS011;38248;52.722;6.734;2022-08-27T14:44:55;3.80;;;0.60;;
52304;SDS011;38248;52.722;6.734;2022-08-27T14:47:20;3.30;;;0.60;;
52304;SDS011;38248;52.722;6.734;2022-08-27T14:49:46;5.82;;;1.05;;
52304;SDS011;38248;52.722;6.734;2022-08-27T14:52:12;7.18;;;0.93;;
52304;SDS011;38248;52.722;6.734;2022-08-27T14:54:39;4.50;;;0.70;;
52304;SDS011;38248;52.722;6.734;2022-08-27T14:57:06;6.55;;;1.02;;
52304;SDS011;38248;52.722;6.734;2022-08-27T14:59:32;5.22;;;0.70;;
52304;SDS011;38248;52.722;6.734;2022-08-27T15:01:59;4.30;;;0.57;;
52304;SDS011;38248;52.722;6.734;2022-08-27T15:04:27;4.45;;;0.82;;
52304;SDS011;38248;52.722;6.734;2022-08-27T15:06:53;4.05;;;0.63;;
52304;SDS011;38248;52.722;6.734;2022-08-27T15:09:19;3.03;;;0.70;;
52304;SDS011;38248;52.722;6.734;2022-08-27T15:11:44;3.78;;;1.05;;
52304;SDS011;38248;52.722;6.734;2022-08-27T15:14:29;3.33;;;0.60;;
52304;SDS011;38248;52.722;6.734;2022-08-27T15:16:57;3.50;;;0.65;;
52304;SDS011;38248;52.722;6.734;2022-08-27T15:19:23;5.43;;;0.98;;
52304;SDS011;38248;52.722;6.734;2022-08-27T15:21:50;5.35;;;0.65;;
52304;SDS011;38248;52.722;6.734;2022-08-27T15:24:20;3.38;;;0.75;;
52304;SDS011;38248;52.722;6.734;2022-08-27T15:26:50;3.65;;;0.60;;
52304;SDS011;38248;52.722;6.734;2022-08-27T15:29:18;4.70;;;0.80;;
52304;SDS011;38248;52.722;6.734;2022-08-27T15:31:44;3.25;;;0.68;;
52304;SDS011;38248;52.722;6.734;2022-08-27T15:34:10;5.43;;;1.02;;
52304;SDS011;38248;52.722;6.734;2022-08-27T15:36:36;2.42;;;0.73;;
52304;SDS011;38248;52.722;6.734;2022-08-27T15:39:03;4.85;;;0.40;;
52304;SDS011;38248;52.722;6.734;2022-08-27T15:41:29;3.72;;;0.63;;
52304;SDS011;38248;52.722;6.734;2022-08-27T15:43:55;4.95;;;0.52;;
52304;SDS011;38248;52.722;6.734;2022-08-27T15:46:21;4.30;;;0.77;;
52304;SDS011;38248;52.722;6.734;2022-08-27T15:48:47;6.53;;;1.15;;
52304;SDS011;38248;52.722;6.734;2022-08-27T15:51:13;5.78;;;0.80;;
52304;SDS011;38248;52.722;6.734;2022-08-27T15:53:50;6.07;;;1.27;;
52304;SDS011;38248;52.722;6.734;2022-08-27T15:56:15;2.42;;;0.70;;
52304;SDS011;38248;52.722;6.734;2022-08-27T15:58:41;4.53;;;0.52;;
52304;SDS011;38248;52.722;6.734;2022-08-27T16:01:08;2.97;;;0.60;;
52304;SDS011;38248;52.722;6.734;2022-08-27T16:03:36;3.25;;;0.40;;
52304;SDS011;38248;52.722;6.734;2022-08-27T16:06:04;2.42;;;0.40;;
52304;SDS011;38248;52.722;6.734;2022-08-27T16:08:30;5.15;;;0.80;;
52304;SDS011;38248;52.722;6.734;2022-08-27T16:10:56;2.60;;;0.47;;
52304;SDS011;38248;52.722;6.734;2022-08-27T16:13:23;4.88;;;1.00;;
52304;SDS011;38248;52.722;6.734;2022-08-27T16:15:53;2.88;;;0.80;;
52304;SDS011;38248;52.722;6.734;2022-08-27T16:18:27;1.38;;;0.50;;
52304;SDS011;38248;52.722;6.734;2022-08-27T16:20:56;4.43;;;0.50;;
52304;SDS011;38248;52.722;6.734;2022-08-27T16:23:23;5.35;;;1.58;;
52304;SDS011;38248;52.722;6.734;2022-08-27T16:25:50;2.17;;;0.50;;
52304;SDS011;38248;52.722;6.734;2022-08-27T16:28:16;3.03;;;0.73;;
52304;SDS011;38248;52.722;6.734;2022-08-27T16:30:42;3.30;;;0.70;;
52304;SDS011;38248;52.722;6.734;2022-08-27T16:33:08;4.70;;;1.05;;
52304;SDS011;38248;52.722;6.734;2022-08-27T16:35:35;3.85;;;0.80;;